Hlavní strana
METAR-TAF:

METAR-TAF

Letiště :

Puerto Cabezas, Nikaragua

zeměpisná šířka: 14-03N, zeměpisná délka: 083-22W, výška: 20 m

Aktuální stav počasí

Zpráva byla vytvořena před 11 hodinami a 6 minutami, v 23:00 UTC
Severní vítr 10 kt
Teplota 28°C
Vlhkost vzduchu 55%
Tlak 1012 hPa
Viditelnost: 7000 m
Polojasno ve výšce 1600 ft
Polojasno ve výšce 10000 ft
zákal

METAR: MNPC 232300Z 36010KT 7000 SCT016 SCT100 28/18 Q1012 HZ

Čas: 04:06 (10:06 UTC)

Předpověď počasí

Zpráva byla vytvořena před 13 hodinami a 16 minutami, v 20:50 UTC
Předpověď platná od 24 v 00 UTC do 24 v 24 UTC
Severní vítr 12 kt
Viditelnost: 7000 m
Oblačno až skoro zataženo ve výšce 1600 ft
zákal
Dočasný
od 24 v 05 UTC do 24 v 10 UTC
Severovýchodní vítr 8 kt
Viditelnost: 7000 m
Oblačno až skoro zataženo ve výšce 1600 ft

TAF: MNPC 232050Z 2400/2424 36012KT 7000 HZ BKN016 TEMPO 2405/2410 05008KT 7000 VCRA/HZ BKN016

Stav a předpovědi počasí z více než 4 000 letišť (zprávy METAR a TAF).

Červené a žluté tečky na mapě představují dostupné meteorologické stanice.

Když kurzor umístíte na tečku, zobrazí se název stanice.

Pak kliknutím zobrazíte stav a předpověď počasí.

Chcete-li změnit mapu, kliknutím na zelené tlačítko se znaménkem +mapu přiblížíte, kliknutím na zelené tlačítko se znaménkem – mapu oddálíte a kliknutím na zelené šipky přejdete na sousední mapy.


METAR-TAF: